sensor_id;sensor_type;location;lat;lon;timestamp;P1;durP1;ratioP1;P2;durP2;ratioP2
74459;SDS011;62902;48.854;9.292;2023-03-25T00:00:24;3.40;;;0.50;;
74459;SDS011;62902;48.854;9.292;2023-03-25T00:02:51;3.17;;;0.65;;
74459;SDS011;62902;48.854;9.292;2023-03-25T00:05:18;1.17;;;0.45;;
74459;SDS011;62902;48.854;9.292;2023-03-25T00:10:14;0.93;;;0.30;;
74459;SDS011;62902;48.854;9.292;2023-03-25T00:12:41;1.75;;;0.60;;
74459;SDS011;62902;48.854;9.292;2023-03-25T00:15:09;0.40;;;0.17;;
74459;SDS011;62902;48.854;9.292;2023-03-25T00:17:36;3.53;;;0.57;;
74459;SDS011;62902;48.854;9.292;2023-03-25T00:20:04;1.17;;;0.35;;
74459;SDS011;62902;48.854;9.292;2023-03-25T00:22:36;0.82;;;0.30;;
74459;SDS011;62902;48.854;9.292;2023-03-25T00:25:07;0.55;;;0.20;;
74459;SDS011;62902;48.854;9.292;2023-03-25T00:27:35;1.58;;;0.30;;
74459;SDS011;62902;48.854;9.292;2023-03-25T00:30:03;2.05;;;0.35;;
74459;SDS011;62902;48.854;9.292;2023-03-25T00:32:30;3.80;;;0.30;;
74459;SDS011;62902;48.854;9.292;2023-03-25T00:34:57;2.33;;;0.40;;
74459;SDS011;62902;48.854;9.292;2023-03-25T00:37:25;1.67;;;0.43;;
74459;SDS011;62902;48.854;9.292;2023-03-25T00:39:52;0.82;;;0.20;;
74459;SDS011;62902;48.854;9.292;2023-03-25T00:42:19;0.50;;;0.10;;
74459;SDS011;62902;48.854;9.292;2023-03-25T00:44:52;0.95;;;0.28;;
74459;SDS011;62902;48.854;9.292;2023-03-25T00:47:20;2.30;;;0.45;;
74459;SDS011;62902;48.854;9.292;2023-03-25T00:49:48;1.05;;;0.30;;
74459;SDS011;62902;48.854;9.292;2023-03-25T00:52:17;0.32;;;0.20;;
74459;SDS011;62902;48.854;9.292;2023-03-25T00:54:44;0.38;;;0.25;;
74459;SDS011;62902;48.854;9.292;2023-03-25T00:57:11;0.57;;;0.20;;
74459;SDS011;62902;48.854;9.292;2023-03-25T00:59:38;0.28;;;0.10;;
74459;SDS011;62902;48.854;9.292;2023-03-25T01:02:05;2.53;;;0.22;;
74459;SDS011;62902;48.854;9.292;2023-03-25T01:04:33;5.68;;;0.50;;
74459;SDS011;62902;48.854;9.292;2023-03-25T01:07:00;0.68;;;0.30;;
74459;SDS011;62902;48.854;9.292;2023-03-25T01:09:28;3.67;;;0.40;;
74459;SDS011;62902;48.854;9.292;2023-03-25T01:11:55;1.27;;;0.30;;
74459;SDS011;62902;48.854;9.292;2023-03-25T01:14:22;1.02;;;0.40;;
74459;SDS011;62902;48.854;9.292;2023-03-25T01:16:54;0.43;;;0.20;;
74459;SDS011;62902;48.854;9.292;2023-03-25T01:19:21;0.55;;;0.22;;
74459;SDS011;62902;48.854;9.292;2023-03-25T01:21:49;2.15;;;0.50;;
74459;SDS011;62902;48.854;9.292;2023-03-25T01:24:16;0.93;;;0.30;;
74459;SDS011;62902;48.854;9.292;2023-03-25T01:26:43;1.27;;;0.30;;
74459;SDS011;62902;48.854;9.292;2023-03-25T01:29:15;0.88;;;0.15;;
74459;SDS011;62902;48.854;9.292;2023-03-25T01:31:43;1.20;;;0.47;;
74459;SDS011;62902;48.854;9.292;2023-03-25T01:34:09;2.10;;;0.47;;
74459;SDS011;62902;48.854;9.292;2023-03-25T01:36:36;3.03;;;0.60;;
74459;SDS011;62902;48.854;9.292;2023-03-25T01:39:05;0.88;;;0.30;;
74459;SDS011;62902;48.854;9.292;2023-03-25T01:41:33;1.70;;;0.40;;
74459;SDS011;62902;48.854;9.292;2023-03-25T01:46:44;3.03;;;0.50;;
74459;SDS011;62902;48.854;9.292;2023-03-25T01:49:19;0.98;;;0.32;;
74459;SDS011;62902;48.854;9.292;2023-03-25T01:51:50;3.10;;;0.40;;
74459;SDS011;62902;48.854;9.292;2023-03-25T01:54:21;2.38;;;0.63;;
74459;SDS011;62902;48.854;9.292;2023-03-25T01:56:48;0.90;;;0.28;;
74459;SDS011;62902;48.854;9.292;2023-03-25T01:59:16;2.03;;;0.93;;
74459;SDS011;62902;48.854;9.292;2023-03-25T02:06:01;5.88;;;1.70;;
74459;SDS011;62902;48.854;9.292;2023-03-25T02:08:36;1.98;;;0.50;;
74459;SDS011;62902;48.854;9.292;2023-03-25T02:11:05;7.00;;;3.80;;
74459;SDS011;62902;48.854;9.292;2023-03-25T02:13:32;11.82;;;7.25;;
74459;SDS011;62902;48.854;9.292;2023-03-25T02:16:14;3.30;;;0.98;;
74459;SDS011;62902;48.854;9.292;2023-03-25T02:21:54;2.28;;;0.70;;
74459;SDS011;62902;48.854;9.292;2023-03-25T02:24:38;17.08;;;8.65;;
74459;SDS011;62902;48.854;9.292;2023-03-25T02:27:51;105.35;;;55.85;;
74459;SDS011;62902;48.854;9.292;2023-03-25T02:39:18;1.33;;;0.47;;
74459;SDS011;62902;48.854;9.292;2023-03-25T02:41:51;2.70;;;0.93;;
74459;SDS011;62902;48.854;9.292;2023-03-25T02:47:01;3.25;;;0.65;;
74459;SDS011;62902;48.854;9.292;2023-03-25T02:49:35;2.42;;;0.60;;
74459;SDS011;62902;48.854;9.292;2023-03-25T02:52:06;1.17;;;0.45;;
74459;SDS011;62902;48.854;9.292;2023-03-25T02:54:36;1.90;;;0.43;;
74459;SDS011;62902;48.854;9.292;2023-03-25T02:57:07;114.63;;;60.00;;
74459;SDS011;62902;48.854;9.292;2023-03-25T02:59:34;238.23;;;137.05;;
74459;SDS011;62902;48.854;9.292;2023-03-25T03:02:05;20.23;;;14.45;;
74459;SDS011;62902;48.854;9.292;2023-03-25T03:04:44;0.93;;;0.28;;
74459;SDS011;62902;48.854;9.292;2023-03-25T03:07:33;0.05;;;0.00;;
74459;SDS011;62902;48.854;9.292;2023-03-25T03:13:04;2.35;;;0.20;;
74459;SDS011;62902;48.854;9.292;2023-03-25T03:16:11;130.15;;;72.60;;
74459;SDS011;62902;48.854;9.292;2023-03-25T03:21:18;0.28;;;0.10;;
74459;SDS011;62902;48.854;9.292;2023-03-25T03:23:56;1.33;;;0.20;;
74459;SDS011;62902;48.854;9.292;2023-03-25T03:26:28;2.95;;;0.22;;
74459;SDS011;62902;48.854;9.292;2023-03-25T03:29:11;16.75;;;8.25;;
74459;SDS011;62902;48.854;9.292;2023-03-25T03:34:51;41.97;;;19.73;;
74459;SDS011;62902;48.854;9.292;2023-03-25T03:37:23;86.50;;;43.60;;
74459;SDS011;62902;48.854;9.292;2023-03-25T03:39:52;36.47;;;14.30;;
74459;SDS011;62902;48.854;9.292;2023-03-25T03:44:53;5.85;;;2.47;;
74459;SDS011;62902;48.854;9.292;2023-03-25T03:47:24;0.25;;;0.13;;
74459;SDS011;62902;48.854;9.292;2023-03-25T03:49:55;0.10;;;0.05;;
74459;SDS011;62902;48.854;9.292;2023-03-25T03:52:27;0.70;;;0.20;;
74459;SDS011;62902;48.854;9.292;2023-03-25T03:57:37;0.55;;;0.20;;
74459;SDS011;62902;48.854;9.292;2023-03-25T04:05:08;3.50;;;0.40;;
74459;SDS011;62902;48.854;9.292;2023-03-25T04:07:44;21.25;;;7.82;;
74459;SDS011;62902;48.854;9.292;2023-03-25T04:10:29;22.77;;;7.22;;
74459;SDS011;62902;48.854;9.292;2023-03-25T04:13:07;0.60;;;0.30;;
74459;SDS011;62902;48.854;9.292;2023-03-25T04:15:36;4.40;;;0.77;;
74459;SDS011;62902;48.854;9.292;2023-03-25T04:18:03;0.52;;;0.25;;
74459;SDS011;62902;48.854;9.292;2023-03-25T04:20:30;0.98;;;0.28;;
74459;SDS011;62902;48.854;9.292;2023-03-25T04:22:59;1.08;;;0.40;;
74459;SDS011;62902;48.854;9.292;2023-03-25T04:25:26;0.80;;;0.25;;
74459;SDS011;62902;48.854;9.292;2023-03-25T04:27:57;0.45;;;0.13;;
74459;SDS011;62902;48.854;9.292;2023-03-25T04:30:25;3.00;;;0.38;;
74459;SDS011;62902;48.854;9.292;2023-03-25T04:32:54;0.17;;;0.17;;
74459;SDS011;62902;48.854;9.292;2023-03-25T04:35:22;13.15;;;5.65;;
74459;SDS011;62902;48.854;9.292;2023-03-25T04:37:50;0.30;;;0.17;;
74459;SDS011;62902;48.854;9.292;2023-03-25T04:40:22;0.70;;;0.15;;
74459;SDS011;62902;48.854;9.292;2023-03-25T04:42:51;0.22;;;0.13;;
74459;SDS011;62902;48.854;9.292;2023-03-25T04:45:18;0.60;;;0.22;;
74459;SDS011;62902;48.854;9.292;2023-03-25T04:47:47;91.00;;;43.05;;
74459;SDS011;62902;48.854;9.292;2023-03-25T04:50:17;0.98;;;0.40;;
74459;SDS011;62902;48.854;9.292;2023-03-25T04:52:48;1.30;;;0.20;;
74459;SDS011;62902;48.854;9.292;2023-03-25T04:55:16;50.42;;;19.58;;
74459;SDS011;62902;48.854;9.292;2023-03-25T04:57:54;4.55;;;0.28;;
74459;SDS011;62902;48.854;9.292;2023-03-25T05:00:22;0.20;;;0.10;;
74459;SDS011;62902;48.854;9.292;2023-03-25T05:02:51;2.33;;;0.22;;
74459;SDS011;62902;48.854;9.292;2023-03-25T05:05:21;0.95;;;0.15;;
74459;SDS011;62902;48.854;9.292;2023-03-25T05:07:50;25.75;;;11.95;;
74459;SDS011;62902;48.854;9.292;2023-03-25T05:10:19;0.47;;;0.20;;
74459;SDS011;62902;48.854;9.292;2023-03-25T05:12:47;0.52;;;0.25;;
74459;SDS011;62902;48.854;9.292;2023-03-25T05:15:14;2.53;;;0.40;;
74459;SDS011;62902;48.854;9.292;2023-03-25T05:17:44;30.48;;;18.35;;
74459;SDS011;62902;48.854;9.292;2023-03-25T05:20:11;30.98;;;14.68;;
74459;SDS011;62902;48.854;9.292;2023-03-25T05:22:39;124.22;;;60.65;;
74459;SDS011;62902;48.854;9.292;2023-03-25T05:25:07;0.95;;;0.30;;
74459;SDS011;62902;48.854;9.292;2023-03-25T05:27:35;56.25;;;23.52;;
74459;SDS011;62902;48.854;9.292;2023-03-25T05:30:03;0.28;;;0.15;;
74459;SDS011;62902;48.854;9.292;2023-03-25T05:32:31;2.05;;;0.13;;
74459;SDS011;62902;48.854;9.292;2023-03-25T05:35:03;1.42;;;0.30;;
74459;SDS011;62902;48.854;9.292;2023-03-25T05:37:30;81.50;;;34.90;;
74459;SDS011;62902;48.854;9.292;2023-03-25T05:39:57;2.60;;;0.40;;
74459;SDS011;62902;48.854;9.292;2023-03-25T05:42:24;5.22;;;1.50;;
74459;SDS011;62902;48.854;9.292;2023-03-25T05:44:51;0.75;;;0.30;;
74459;SDS011;62902;48.854;9.292;2023-03-25T05:47:19;30.48;;;11.77;;
74459;SDS011;62902;48.854;9.292;2023-03-25T05:49:47;3.08;;;0.63;;
74459;SDS011;62902;48.854;9.292;2023-03-25T05:52:15;2.60;;;0.28;;
74459;SDS011;62902;48.854;9.292;2023-03-25T05:54:42;104.25;;;48.72;;
74459;SDS011;62902;48.854;9.292;2023-03-25T05:57:10;3.78;;;0.52;;
74459;SDS011;62902;48.854;9.292;2023-03-25T05:59:38;42.72;;;20.92;;
74459;SDS011;62902;48.854;9.292;2023-03-25T06:02:06;429.60;;;227.93;;
74459;SDS011;62902;48.854;9.292;2023-03-25T06:04:35;447.65;;;229.18;;
74459;SDS011;62902;48.854;9.292;2023-03-25T06:07:06;410.40;;;217.02;;
74459;SDS011;62902;48.854;9.292;2023-03-25T06:09:45;421.40;;;218.18;;
74459;SDS011;62902;48.854;9.292;2023-03-25T06:12:13;414.85;;;228.40;;
74459;SDS011;62902;48.854;9.292;2023-03-25T06:14:41;439.55;;;250.63;;
74459;SDS011;62902;48.854;9.292;2023-03-25T06:17:13;450.58;;;259.10;;
74459;SDS011;62902;48.854;9.292;2023-03-25T06:19:40;398.02;;;222.73;;
74459;SDS011;62902;48.854;9.292;2023-03-25T06:22:08;412.15;;;236.05;;
74459;SDS011;62902;48.854;9.292;2023-03-25T06:24:36;445.15;;;266.23;;
74459;SDS011;62902;48.854;9.292;2023-03-25T06:27:03;442.63;;;263.67;;
74459;SDS011;62902;48.854;9.292;2023-03-25T06:29:35;443.85;;;267.70;;
74459;SDS011;62902;48.854;9.292;2023-03-25T06:32:07;379.88;;;197.43;;
74459;SDS011;62902;48.854;9.292;2023-03-25T06:34:34;379.63;;;200.98;;
74459;SDS011;62902;48.854;9.292;2023-03-25T06:37:01;319.13;;;154.70;;
74459;SDS011;62902;48.854;9.292;2023-03-25T06:39:28;315.85;;;156.07;;
74459;SDS011;62902;48.854;9.292;2023-03-25T06:42:02;440.00;;;219.43;;
74459;SDS011;62902;48.854;9.292;2023-03-25T06:44:45;449.17;;;230.95;;
74459;SDS011;62902;48.854;9.292;2023-03-25T06:47:30;433.67;;;215.05;;
74459;SDS011;62902;48.854;9.292;2023-03-25T06:49:57;229.30;;;111.68;;
74459;SDS011;62902;48.854;9.292;2023-03-25T06:52:23;112.25;;;49.00;;
74459;SDS011;62902;48.854;9.292;2023-03-25T06:54:50;173.95;;;89.95;;
74459;SDS011;62902;48.854;9.292;2023-03-25T06:57:17;23.20;;;5.18;;
74459;SDS011;62902;48.854;9.292;2023-03-25T06:59:43;2.97;;;0.70;;
74459;SDS011;62902;48.854;9.292;2023-03-25T07:02:11;3.17;;;0.55;;
74459;SDS011;62902;48.854;9.292;2023-03-25T07:04:39;1.08;;;0.20;;
74459;SDS011;62902;48.854;9.292;2023-03-25T07:07:07;97.03;;;46.05;;
74459;SDS011;62902;48.854;9.292;2023-03-25T07:09:34;135.07;;;76.47;;
74459;SDS011;62902;48.854;9.292;2023-03-25T07:12:00;129.20;;;75.47;;
74459;SDS011;62902;48.854;9.292;2023-03-25T07:14:27;9.00;;;4.13;;
74459;SDS011;62902;48.854;9.292;2023-03-25T07:16:53;5.22;;;2.42;;
74459;SDS011;62902;48.854;9.292;2023-03-25T07:19:20;248.63;;;138.90;;
74459;SDS011;62902;48.854;9.292;2023-03-25T07:21:47;171.43;;;99.00;;
74459;SDS011;62902;48.854;9.292;2023-03-25T07:24:13;180.23;;;105.45;;
74459;SDS011;62902;48.854;9.292;2023-03-25T07:26:40;5.45;;;1.23;;
74459;SDS011;62902;48.854;9.292;2023-03-25T07:29:08;87.38;;;48.70;;
74459;SDS011;62902;48.854;9.292;2023-03-25T07:31:35;55.88;;;28.45;;
74459;SDS011;62902;48.854;9.292;2023-03-25T07:34:01;25.27;;;12.68;;
74459;SDS011;62902;48.854;9.292;2023-03-25T07:36:28;51.97;;;31.27;;
74459;SDS011;62902;48.854;9.292;2023-03-25T07:38:55;82.07;;;47.92;;
74459;SDS011;62902;48.854;9.292;2023-03-25T07:41:22;33.97;;;16.27;;
74459;SDS011;62902;48.854;9.292;2023-03-25T07:44:02;2.28;;;0.50;;
74459;SDS011;62902;48.854;9.292;2023-03-25T07:46:30;2.03;;;0.40;;
74459;SDS011;62902;48.854;9.292;2023-03-25T07:48:57;2.40;;;0.55;;
74459;SDS011;62902;48.854;9.292;2023-03-25T07:51:23;2.80;;;0.40;;
74459;SDS011;62902;48.854;9.292;2023-03-25T07:53:50;3.85;;;0.60;;
74459;SDS011;62902;48.854;9.292;2023-03-25T07:56:17;42.25;;;17.27;;
74459;SDS011;62902;48.854;9.292;2023-03-25T07:58:43;4.55;;;0.40;;
74459;SDS011;62902;48.854;9.292;2023-03-25T08:01:10;10.75;;;5.97;;
74459;SDS011;62902;48.854;9.292;2023-03-25T08:03:37;143.35;;;80.00;;
74459;SDS011;62902;48.854;9.292;2023-03-25T08:06:05;39.47;;;35.85;;
74459;SDS011;62902;48.854;9.292;2023-03-25T08:08:33;78.25;;;56.00;;
74459;SDS011;62902;48.854;9.292;2023-03-25T08:11:00;149.77;;;87.13;;
74459;SDS011;62902;48.854;9.292;2023-03-25T08:13:27;189.23;;;103.38;;
74459;SDS011;62902;48.854;9.292;2023-03-25T08:15:53;256.58;;;137.98;;
74459;SDS011;62902;48.854;9.292;2023-03-25T08:18:20;284.48;;;156.73;;
74459;SDS011;62902;48.854;9.292;2023-03-25T08:20:47;77.50;;;48.40;;
74459;SDS011;62902;48.854;9.292;2023-03-25T08:23:14;209.57;;;113.10;;
74459;SDS011;62902;48.854;9.292;2023-03-25T08:25:46;2.80;;;0.85;;
74459;SDS011;62902;48.854;9.292;2023-03-25T08:28:17;2.80;;;0.65;;
74459;SDS011;62902;48.854;9.292;2023-03-25T08:30:49;163.43;;;84.07;;
74459;SDS011;62902;48.854;9.292;2023-03-25T08:33:21;123.90;;;68.63;;
74459;SDS011;62902;48.854;9.292;2023-03-25T08:35:55;4.13;;;0.55;;
74459;SDS011;62902;48.854;9.292;2023-03-25T08:38:22;1.83;;;0.45;;
74459;SDS011;62902;48.854;9.292;2023-03-25T08:43:17;6.85;;;2.15;;
74459;SDS011;62902;48.854;9.292;2023-03-25T08:45:45;3.80;;;0.85;;
74459;SDS011;62902;48.854;9.292;2023-03-25T08:48:12;15.27;;;6.78;;
74459;SDS011;62902;48.854;9.292;2023-03-25T08:50:38;37.67;;;29.83;;
74459;SDS011;62902;48.854;9.292;2023-03-25T08:53:05;101.50;;;62.40;;
74459;SDS011;62902;48.854;9.292;2023-03-25T08:55:32;92.70;;;47.92;;
74459;SDS011;62902;48.854;9.292;2023-03-25T08:58:02;315.25;;;181.63;;
74459;SDS011;62902;48.854;9.292;2023-03-25T09:00:34;318.40;;;185.27;;
74459;SDS011;62902;48.854;9.292;2023-03-25T09:03:03;329.17;;;190.43;;
74459;SDS011;62902;48.854;9.292;2023-03-25T09:05:30;342.90;;;202.55;;
74459;SDS011;62902;48.854;9.292;2023-03-25T09:07:57;305.88;;;178.13;;
74459;SDS011;62902;48.854;9.292;2023-03-25T09:10:23;357.05;;;216.43;;
74459;SDS011;62902;48.854;9.292;2023-03-25T09:12:50;342.23;;;209.00;;
74459;SDS011;62902;48.854;9.292;2023-03-25T09:15:16;369.25;;;230.07;;
74459;SDS011;62902;48.854;9.292;2023-03-25T09:17:43;308.80;;;189.63;;
74459;SDS011;62902;48.854;9.292;2023-03-25T09:20:10;240.35;;;138.32;;
74459;SDS011;62902;48.854;9.292;2023-03-25T09:22:38;56.60;;;32.75;;
74459;SDS011;62902;48.854;9.292;2023-03-25T09:25:04;248.90;;;149.15;;
74459;SDS011;62902;48.854;9.292;2023-03-25T09:27:32;282.30;;;169.82;;
74459;SDS011;62902;48.854;9.292;2023-03-25T09:30:00;275.33;;;167.25;;
74459;SDS011;62902;48.854;9.292;2023-03-25T09:32:26;292.77;;;178.55;;
74459;SDS011;62902;48.854;9.292;2023-03-25T09:34:53;301.13;;;185.32;;
74459;SDS011;62902;48.854;9.292;2023-03-25T09:37:19;316.35;;;193.18;;
74459;SDS011;62902;48.854;9.292;2023-03-25T09:39:46;307.02;;;182.85;;
74459;SDS011;62902;48.854;9.292;2023-03-25T09:45:30;202.15;;;123.47;;
74459;SDS011;62902;48.854;9.292;2023-03-25T09:48:23;243.43;;;149.50;;
74459;SDS011;62902;48.854;9.292;2023-03-25T09:50:52;238.38;;;136.95;;
74459;SDS011;62902;48.854;9.292;2023-03-25T09:53:24;328.25;;;192.18;;
74459;SDS011;62902;48.854;9.292;2023-03-25T09:55:54;294.15;;;175.57;;
74459;SDS011;62902;48.854;9.292;2023-03-25T10:00:51;94.05;;;63.97;;
74459;SDS011;62902;48.854;9.292;2023-03-25T10:03:26;138.30;;;82.47;;
74459;SDS011;62902;48.854;9.292;2023-03-25T10:06:04;103.78;;;71.45;;
74459;SDS011;62902;48.854;9.292;2023-03-25T10:11:48;54.97;;;47.47;;
74459;SDS011;62902;48.854;9.292;2023-03-25T10:14:32;87.78;;;61.45;;
74459;SDS011;62902;48.854;9.292;2023-03-25T10:19:54;130.77;;;78.13;;
74459;SDS011;62902;48.854;9.292;2023-03-25T10:22:36;306.15;;;172.35;;
74459;SDS011;62902;48.854;9.292;2023-03-25T10:25:11;427.05;;;231.38;;
74459;SDS011;62902;48.854;9.292;2023-03-25T10:27:44;498.98;;;265.23;;
74459;SDS011;62902;48.854;9.292;2023-03-25T10:30:18;507.58;;;274.27;;
74459;SDS011;62902;48.854;9.292;2023-03-25T10:35:28;549.47;;;303.88;;
74459;SDS011;62902;48.854;9.292;2023-03-25T10:38:12;408.88;;;217.93;;
74459;SDS011;62902;48.854;9.292;2023-03-25T10:40:45;520.25;;;284.20;;
74459;SDS011;62902;48.854;9.292;2023-03-25T10:45:48;489.52;;;258.20;;
74459;SDS011;62902;48.854;9.292;2023-03-25T10:48:24;521.60;;;285.77;;
74459;SDS011;62902;48.854;9.292;2023-03-25T10:50:58;532.28;;;300.95;;
74459;SDS011;62902;48.854;9.292;2023-03-25T10:53:28;520.95;;;289.73;;
74459;SDS011;62902;48.854;9.292;2023-03-25T10:56:00;502.35;;;277.80;;
74459;SDS011;62902;48.854;9.292;2023-03-25T10:58:32;536.10;;;305.42;;
74459;SDS011;62902;48.854;9.292;2023-03-25T11:01:00;562.97;;;320.27;;
74459;SDS011;62902;48.854;9.292;2023-03-25T11:03:34;558.58;;;311.75;;
74459;SDS011;62902;48.854;9.292;2023-03-25T11:06:01;562.22;;;310.90;;
74459;SDS011;62902;48.854;9.292;2023-03-25T11:08:29;579.38;;;325.10;;
74459;SDS011;62902;48.854;9.292;2023-03-25T11:10:55;554.85;;;313.20;;
74459;SDS011;62902;48.854;9.292;2023-03-25T11:13:24;513.83;;;279.85;;
74459;SDS011;62902;48.854;9.292;2023-03-25T11:15:56;482.98;;;239.15;;
74459;SDS011;62902;48.854;9.292;2023-03-25T11:18:36;519.35;;;275.45;;
74459;SDS011;62902;48.854;9.292;2023-03-25T11:21:10;375.88;;;184.02;;
74459;SDS011;62902;48.854;9.292;2023-03-25T11:23:48;499.05;;;269.02;;
74459;SDS011;62902;48.854;9.292;2023-03-25T11:26:23;612.15;;;332.50;;
74459;SDS011;62902;48.854;9.292;2023-03-25T11:28:55;460.42;;;250.57;;
74459;SDS011;62902;48.854;9.292;2023-03-25T11:31:27;449.08;;;243.20;;
74459;SDS011;62902;48.854;9.292;2023-03-25T11:36:54;509.33;;;274.02;;
74459;SDS011;62902;48.854;9.292;2023-03-25T11:39:26;613.25;;;333.67;;
74459;SDS011;62902;48.854;9.292;2023-03-25T11:41:56;655.70;;;373.52;;
74459;SDS011;62902;48.854;9.292;2023-03-25T11:44:29;607.70;;;327.45;;
74459;SDS011;62902;48.854;9.292;2023-03-25T11:47:01;622.10;;;342.25;;
74459;SDS011;62902;48.854;9.292;2023-03-25T11:49:29;626.90;;;342.02;;
74459;SDS011;62902;48.854;9.292;2023-03-25T11:52:04;664.45;;;365.63;;
74459;SDS011;62902;48.854;9.292;2023-03-25T11:54:33;119.75;;;62.08;;
74459;SDS011;62902;48.854;9.292;2023-03-25T11:57:04;10.98;;;7.60;;
74459;SDS011;62902;48.854;9.292;2023-03-25T11:59:35;9.07;;;5.97;;
74459;SDS011;62902;48.854;9.292;2023-03-25T12:02:23;2.95;;;0.90;;
74459;SDS011;62902;48.854;9.292;2023-03-25T12:04:57;5.35;;;3.10;;
74459;SDS011;62902;48.854;9.292;2023-03-25T12:07:24;29.80;;;20.75;;
74459;SDS011;62902;48.854;9.292;2023-03-25T12:09:52;7.22;;;4.65;;
74459;SDS011;62902;48.854;9.292;2023-03-25T12:12:41;38.97;;;26.27;;
74459;SDS011;62902;48.854;9.292;2023-03-25T12:15:21;23.08;;;13.10;;
74459;SDS011;62902;48.854;9.292;2023-03-25T12:20:29;14.82;;;7.32;;
74459;SDS011;62902;48.854;9.292;2023-03-25T12:26:25;2.38;;;0.50;;
74459;SDS011;62902;48.854;9.292;2023-03-25T12:29:10;1.80;;;0.60;;
74459;SDS011;62902;48.854;9.292;2023-03-25T12:32:21;7.75;;;1.73;;
74459;SDS011;62902;48.854;9.292;2023-03-25T12:40:40;3.33;;;1.73;;
74459;SDS011;62902;48.854;9.292;2023-03-25T12:43:14;3.88;;;0.90;;
74459;SDS011;62902;48.854;9.292;2023-03-25T12:48:44;6.05;;;1.17;;
74459;SDS011;62902;48.854;9.292;2023-03-25T12:51:39;7.40;;;3.90;;
74459;SDS011;62902;48.854;9.292;2023-03-25T12:54:18;8.95;;;4.50;;
74459;SDS011;62902;48.854;9.292;2023-03-25T13:07:27;45.88;;;30.98;;
74459;SDS011;62902;48.854;9.292;2023-03-25T13:10:14;1.67;;;0.50;;
74459;SDS011;62902;48.854;9.292;2023-03-25T13:12:50;9.82;;;5.65;;
74459;SDS011;62902;48.854;9.292;2023-03-25T13:15:20;25.95;;;14.68;;
74459;SDS011;62902;48.854;9.292;2023-03-25T13:18:07;2.42;;;0.60;;
74459;SDS011;62902;48.854;9.292;2023-03-25T13:20:37;10.65;;;6.13;;
74459;SDS011;62902;48.854;9.292;2023-03-25T13:23:07;3.75;;;0.93;;
74459;SDS011;62902;48.854;9.292;2023-03-25T13:25:42;26.23;;;15.57;;
74459;SDS011;62902;48.854;9.292;2023-03-25T13:28:19;3.08;;;1.10;;
74459;SDS011;62902;48.854;9.292;2023-03-25T13:30:48;28.52;;;18.58;;
74459;SDS011;62902;48.854;9.292;2023-03-25T13:33:18;15.70;;;9.80;;
74459;SDS011;62902;48.854;9.292;2023-03-25T13:38:24;2.55;;;0.70;;
74459;SDS011;62902;48.854;9.292;2023-03-25T13:41:11;62.72;;;31.00;;
74459;SDS011;62902;48.854;9.292;2023-03-25T13:43:55;71.35;;;30.70;;
74459;SDS011;62902;48.854;9.292;2023-03-25T13:46:38;22.70;;;13.18;;
74459;SDS011;62902;48.854;9.292;2023-03-25T13:49:16;3.92;;;1.10;;
74459;SDS011;62902;48.854;9.292;2023-03-25T13:51:44;17.08;;;8.15;;
74459;SDS011;62902;48.854;9.292;2023-03-25T13:54:30;13.20;;;9.70;;
74459;SDS011;62902;48.854;9.292;2023-03-25T14:06:20;82.78;;;40.55;;
74459;SDS011;62902;48.854;9.292;2023-03-25T14:11:43;18.48;;;11.25;;
74459;SDS011;62902;48.854;9.292;2023-03-25T14:14:14;4.07;;;1.85;;
74459;SDS011;62902;48.854;9.292;2023-03-25T14:16:51;10.40;;;3.65;;
74459;SDS011;62902;48.854;9.292;2023-03-25T14:19:32;38.05;;;20.67;;
74459;SDS011;62902;48.854;9.292;2023-03-25T14:22:12;19.70;;;16.63;;
74459;SDS011;62902;48.854;9.292;2023-03-25T14:24:40;128.80;;;62.42;;
74459;SDS011;62902;48.854;9.292;2023-03-25T14:29:57;6.93;;;2.75;;
74459;SDS011;62902;48.854;9.292;2023-03-25T14:32:31;6.45;;;1.60;;
74459;SDS011;62902;48.854;9.292;2023-03-25T14:43:18;3.13;;;0.70;;
74459;SDS011;62902;48.854;9.292;2023-03-25T14:48:37;3.33;;;1.20;;
74459;SDS011;62902;48.854;9.292;2023-03-25T14:53:54;11.07;;;8.80;;
74459;SDS011;62902;48.854;9.292;2023-03-25T14:56:31;4.63;;;1.92;;
74459;SDS011;62902;48.854;9.292;2023-03-25T14:59:14;5.80;;;2.65;;
74459;SDS011;62902;48.854;9.292;2023-03-25T15:01:42;15.60;;;10.15;;
74459;SDS011;62902;48.854;9.292;2023-03-25T15:04:10;12.63;;;10.85;;
74459;SDS011;62902;48.854;9.292;2023-03-25T15:06:40;41.33;;;26.50;;
74459;SDS011;62902;48.854;9.292;2023-03-25T15:09:08;33.83;;;21.27;;
74459;SDS011;62902;48.854;9.292;2023-03-25T15:11:39;15.88;;;10.50;;
74459;SDS011;62902;48.854;9.292;2023-03-25T15:14:18;14.52;;;8.30;;
74459;SDS011;62902;48.854;9.292;2023-03-25T15:16:55;35.75;;;17.33;;
74459;SDS011;62902;48.854;9.292;2023-03-25T15:19:26;10.18;;;3.53;;
74459;SDS011;62902;48.854;9.292;2023-03-25T15:24:29;23.88;;;7.82;;
74459;SDS011;62902;48.854;9.292;2023-03-25T15:26:58;20.33;;;6.18;;
74459;SDS011;62902;48.854;9.292;2023-03-25T15:40:58;6.22;;;1.92;;
74459;SDS011;62902;48.854;9.292;2023-03-25T15:54:40;4.68;;;1.48;;
74459;SDS011;62902;48.854;9.292;2023-03-25T16:02:23;3.88;;;1.00;;
74459;SDS011;62902;48.854;9.292;2023-03-25T16:04:51;2.38;;;0.73;;
74459;SDS011;62902;48.854;9.292;2023-03-25T16:07:19;3.65;;;0.85;;
74459;SDS011;62902;48.854;9.292;2023-03-25T16:09:49;2.95;;;0.75;;
74459;SDS011;62902;48.854;9.292;2023-03-25T16:12:20;4.95;;;0.80;;
74459;SDS011;62902;48.854;9.292;2023-03-25T16:14:49;4.20;;;0.70;;
74459;SDS011;62902;48.854;9.292;2023-03-25T16:17:17;4.68;;;1.40;;
74459;SDS011;62902;48.854;9.292;2023-03-25T16:19:47;3.78;;;0.95;;
74459;SDS011;62902;48.854;9.292;2023-03-25T16:24:54;5.40;;;1.80;;
74459;SDS011;62902;48.854;9.292;2023-03-25T16:27:23;4.72;;;0.80;;
74459;SDS011;62902;48.854;9.292;2023-03-25T16:29:52;4.72;;;1.00;;
74459;SDS011;62902;48.854;9.292;2023-03-25T16:32:23;2.10;;;0.60;;
74459;SDS011;62902;48.854;9.292;2023-03-25T16:34:52;16.10;;;6.63;;
74459;SDS011;62902;48.854;9.292;2023-03-25T16:37:19;3.10;;;0.55;;
74459;SDS011;62902;48.854;9.292;2023-03-25T16:39:50;3.42;;;0.63;;
74459;SDS011;62902;48.854;9.292;2023-03-25T16:42:19;55.97;;;22.15;;
74459;SDS011;62902;48.854;9.292;2023-03-25T16:44:46;1.52;;;0.40;;
74459;SDS011;62902;48.854;9.292;2023-03-25T16:47:13;3.42;;;0.47;;
74459;SDS011;62902;48.854;9.292;2023-03-25T16:52:09;0.82;;;0.30;;
74459;SDS011;62902;48.854;9.292;2023-03-25T16:54:45;3.28;;;0.47;;
74459;SDS011;62902;48.854;9.292;2023-03-25T16:57:33;3.22;;;0.50;;
74459;SDS011;62902;48.854;9.292;2023-03-25T17:00:16;3.13;;;0.50;;
74459;SDS011;62902;48.854;9.292;2023-03-25T17:02:46;4.45;;;0.85;;
74459;SDS011;62902;48.854;9.292;2023-03-25T17:07:45;0.98;;;0.40;;
74459;SDS011;62902;48.854;9.292;2023-03-25T17:10:23;1.95;;;0.60;;
74459;SDS011;62902;48.854;9.292;2023-03-25T17:12:56;3.92;;;0.50;;
74459;SDS011;62902;48.854;9.292;2023-03-25T17:15:26;1.42;;;0.32;;
74459;SDS011;62902;48.854;9.292;2023-03-25T17:17:55;6.05;;;0.73;;
74459;SDS011;62902;48.854;9.292;2023-03-25T17:22:59;3.72;;;0.47;;
74459;SDS011;62902;48.854;9.292;2023-03-25T17:25:35;2.08;;;0.60;;
74459;SDS011;62902;48.854;9.292;2023-03-25T17:31:25;3.72;;;0.43;;
74459;SDS011;62902;48.854;9.292;2023-03-25T17:36:46;36.80;;;14.25;;
74459;SDS011;62902;48.854;9.292;2023-03-25T17:41:48;4.00;;;0.82;;